sensor_id;sensor_type;location;lat;lon;timestamp;P1;durP1;ratioP1;P2;durP2;ratioP2
51266;SDS011;37338;47.426;19.204;2024-02-23T00:00:26;2.13;;;1.50;;
51266;SDS011;37338;47.426;19.204;2024-02-23T00:02:51;2.40;;;1.53;;
51266;SDS011;37338;47.426;19.204;2024-02-23T00:05:18;2.53;;;1.47;;
51266;SDS011;37338;47.426;19.204;2024-02-23T00:07:44;4.10;;;1.90;;
51266;SDS011;37338;47.426;19.204;2024-02-23T00:10:09;2.67;;;1.33;;
51266;SDS011;37338;47.426;19.204;2024-02-23T00:12:35;3.13;;;1.00;;
51266;SDS011;37338;47.426;19.204;2024-02-23T00:15:00;2.70;;;1.73;;
51266;SDS011;37338;47.426;19.204;2024-02-23T00:17:25;2.67;;;1.40;;
51266;SDS011;37338;47.426;19.204;2024-02-23T00:19:51;2.30;;;1.63;;
51266;SDS011;37338;47.426;19.204;2024-02-23T00:22:17;2.50;;;1.70;;
51266;SDS011;37338;47.426;19.204;2024-02-23T00:24:43;1.80;;;1.20;;
51266;SDS011;37338;47.426;19.204;2024-02-23T00:27:08;1.70;;;1.10;;
51266;SDS011;37338;47.426;19.204;2024-02-23T00:29:33;3.40;;;1.20;;
51266;SDS011;37338;47.426;19.204;2024-02-23T00:31:59;3.67;;;1.60;;
51266;SDS011;37338;47.426;19.204;2024-02-23T00:34:24;2.33;;;1.10;;
51266;SDS011;37338;47.426;19.204;2024-02-23T00:36:50;2.17;;;1.07;;
51266;SDS011;37338;47.426;19.204;2024-02-23T00:39:15;3.10;;;1.33;;
51266;SDS011;37338;47.426;19.204;2024-02-23T00:41:41;2.23;;;1.20;;
51266;SDS011;37338;47.426;19.204;2024-02-23T00:44:06;2.57;;;1.57;;
51266;SDS011;37338;47.426;19.204;2024-02-23T00:46:31;2.33;;;1.67;;
51266;SDS011;37338;47.426;19.204;2024-02-23T00:48:57;5.60;;;1.60;;
51266;SDS011;37338;47.426;19.204;2024-02-23T00:51:22;2.10;;;1.40;;
51266;SDS011;37338;47.426;19.204;2024-02-23T00:53:48;3.47;;;2.00;;
51266;SDS011;37338;47.426;19.204;2024-02-23T00:56:13;2.07;;;1.63;;
51266;SDS011;37338;47.426;19.204;2024-02-23T00:58:39;2.53;;;1.67;;
51266;SDS011;37338;47.426;19.204;2024-02-23T01:01:04;3.33;;;1.80;;
51266;SDS011;37338;47.426;19.204;2024-02-23T01:03:29;3.90;;;2.47;;
51266;SDS011;37338;47.426;19.204;2024-02-23T01:05:55;4.30;;;2.23;;
51266;SDS011;37338;47.426;19.204;2024-02-23T01:08:20;4.37;;;3.20;;
51266;SDS011;37338;47.426;19.204;2024-02-23T01:10:46;4.63;;;2.93;;
51266;SDS011;37338;47.426;19.204;2024-02-23T01:13:11;4.70;;;3.30;;
51266;SDS011;37338;47.426;19.204;2024-02-23T01:15:37;4.50;;;3.10;;
51266;SDS011;37338;47.426;19.204;2024-02-23T01:18:03;3.40;;;2.20;;
51266;SDS011;37338;47.426;19.204;2024-02-23T01:20:29;3.80;;;2.80;;
51266;SDS011;37338;47.426;19.204;2024-02-23T01:22:54;4.33;;;3.10;;
51266;SDS011;37338;47.426;19.204;2024-02-23T01:25:19;4.10;;;2.67;;
51266;SDS011;37338;47.426;19.204;2024-02-23T01:27:44;4.20;;;2.70;;
51266;SDS011;37338;47.426;19.204;2024-02-23T01:30:10;4.00;;;2.23;;
51266;SDS011;37338;47.426;19.204;2024-02-23T01:32:36;3.93;;;2.50;;
51266;SDS011;37338;47.426;19.204;2024-02-23T01:35:03;2.97;;;2.17;;
51266;SDS011;37338;47.426;19.204;2024-02-23T01:37:29;4.63;;;2.40;;
51266;SDS011;37338;47.426;19.204;2024-02-23T01:39:54;7.17;;;2.70;;
51266;SDS011;37338;47.426;19.204;2024-02-23T01:42:19;4.53;;;3.03;;
51266;SDS011;37338;47.426;19.204;2024-02-23T01:44:45;7.13;;;3.00;;
51266;SDS011;37338;47.426;19.204;2024-02-23T01:47:10;4.13;;;2.90;;
51266;SDS011;37338;47.426;19.204;2024-02-23T01:49:36;5.30;;;2.27;;
51266;SDS011;37338;47.426;19.204;2024-02-23T01:52:02;3.27;;;2.53;;
51266;SDS011;37338;47.426;19.204;2024-02-23T01:54:27;4.13;;;2.80;;
51266;SDS011;37338;47.426;19.204;2024-02-23T01:56:54;3.67;;;2.37;;
51266;SDS011;37338;47.426;19.204;2024-02-23T01:59:20;2.73;;;2.43;;
51266;SDS011;37338;47.426;19.204;2024-02-23T02:01:46;6.67;;;1.87;;
51266;SDS011;37338;47.426;19.204;2024-02-23T02:04:11;4.00;;;1.87;;
51266;SDS011;37338;47.426;19.204;2024-02-23T02:06:37;5.07;;;2.30;;
51266;SDS011;37338;47.426;19.204;2024-02-23T02:09:02;2.43;;;1.73;;
51266;SDS011;37338;47.426;19.204;2024-02-23T02:11:27;3.03;;;2.30;;
51266;SDS011;37338;47.426;19.204;2024-02-23T02:13:53;2.83;;;2.17;;
51266;SDS011;37338;47.426;19.204;2024-02-23T02:16:18;2.70;;;2.20;;
51266;SDS011;37338;47.426;19.204;2024-02-23T02:18:44;2.67;;;1.90;;
51266;SDS011;37338;47.426;19.204;2024-02-23T02:21:12;3.37;;;1.73;;
51266;SDS011;37338;47.426;19.204;2024-02-23T02:23:37;2.40;;;1.77;;
51266;SDS011;37338;47.426;19.204;2024-02-23T02:26:03;3.97;;;1.83;;
51266;SDS011;37338;47.426;19.204;2024-02-23T02:28:28;3.20;;;2.10;;
51266;SDS011;37338;47.426;19.204;2024-02-23T02:30:54;5.03;;;2.40;;
51266;SDS011;37338;47.426;19.204;2024-02-23T02:33:19;4.40;;;1.90;;
51266;SDS011;37338;47.426;19.204;2024-02-23T02:35:45;6.30;;;1.83;;
51266;SDS011;37338;47.426;19.204;2024-02-23T02:38:11;4.37;;;1.80;;
51266;SDS011;37338;47.426;19.204;2024-02-23T02:40:36;5.00;;;2.40;;
51266;SDS011;37338;47.426;19.204;2024-02-23T02:43:02;3.40;;;1.60;;
51266;SDS011;37338;47.426;19.204;2024-02-23T02:45:27;4.00;;;1.93;;
51266;SDS011;37338;47.426;19.204;2024-02-23T02:47:52;3.30;;;2.13;;
51266;SDS011;37338;47.426;19.204;2024-02-23T02:50:18;3.63;;;1.60;;
51266;SDS011;37338;47.426;19.204;2024-02-23T02:52:43;5.03;;;1.90;;
51266;SDS011;37338;47.426;19.204;2024-02-23T02:55:08;3.20;;;1.73;;
51266;SDS011;37338;47.426;19.204;2024-02-23T02:57:34;6.93;;;2.37;;
51266;SDS011;37338;47.426;19.204;2024-02-23T03:00:01;5.00;;;3.57;;
51266;SDS011;37338;47.426;19.204;2024-02-23T03:02:29;3.43;;;2.63;;
51266;SDS011;37338;47.426;19.204;2024-02-23T03:04:55;4.20;;;2.30;;
51266;SDS011;37338;47.426;19.204;2024-02-23T03:07:20;2.23;;;1.97;;
51266;SDS011;37338;47.426;19.204;2024-02-23T03:09:46;3.33;;;1.90;;
51266;SDS011;37338;47.426;19.204;2024-02-23T03:12:11;6.30;;;2.10;;
51266;SDS011;37338;47.426;19.204;2024-02-23T03:14:36;3.33;;;2.00;;
51266;SDS011;37338;47.426;19.204;2024-02-23T03:17:05;7.60;;;1.93;;
51266;SDS011;37338;47.426;19.204;2024-02-23T03:19:32;5.07;;;2.70;;
51266;SDS011;37338;47.426;19.204;2024-02-23T03:21:57;3.73;;;2.50;;
51266;SDS011;37338;47.426;19.204;2024-02-23T03:24:23;6.73;;;3.23;;
51266;SDS011;37338;47.426;19.204;2024-02-23T03:26:48;5.43;;;2.63;;
51266;SDS011;37338;47.426;19.204;2024-02-23T03:29:13;4.03;;;2.43;;
51266;SDS011;37338;47.426;19.204;2024-02-23T03:31:39;3.63;;;2.47;;
51266;SDS011;37338;47.426;19.204;2024-02-23T03:34:04;3.70;;;2.30;;
51266;SDS011;37338;47.426;19.204;2024-02-23T03:36:29;4.57;;;2.50;;
51266;SDS011;37338;47.426;19.204;2024-02-23T03:38:56;4.23;;;1.90;;
51266;SDS011;37338;47.426;19.204;2024-02-23T03:41:21;3.30;;;2.20;;
51266;SDS011;37338;47.426;19.204;2024-02-23T03:43:46;2.50;;;1.77;;
51266;SDS011;37338;47.426;19.204;2024-02-23T03:46:12;5.70;;;1.93;;
51266;SDS011;37338;47.426;19.204;2024-02-23T03:48:37;2.17;;;1.77;;
51266;SDS011;37338;47.426;19.204;2024-02-23T03:51:03;3.83;;;1.97;;
51266;SDS011;37338;47.426;19.204;2024-02-23T03:53:30;4.63;;;2.33;;
51266;SDS011;37338;47.426;19.204;2024-02-23T03:55:55;4.30;;;1.93;;
51266;SDS011;37338;47.426;19.204;2024-02-23T03:58:22;4.47;;;2.90;;
51266;SDS011;37338;47.426;19.204;2024-02-23T04:00:47;2.73;;;1.90;;
51266;SDS011;37338;47.426;19.204;2024-02-23T04:03:12;3.60;;;2.43;;
51266;SDS011;37338;47.426;19.204;2024-02-23T04:05:38;4.17;;;2.07;;
51266;SDS011;37338;47.426;19.204;2024-02-23T04:08:03;5.50;;;3.17;;
51266;SDS011;37338;47.426;19.204;2024-02-23T04:10:29;6.70;;;2.60;;
51266;SDS011;37338;47.426;19.204;2024-02-23T04:12:54;5.30;;;2.53;;
51266;SDS011;37338;47.426;19.204;2024-02-23T04:15:19;4.13;;;2.70;;
51266;SDS011;37338;47.426;19.204;2024-02-23T04:17:45;6.47;;;3.33;;
51266;SDS011;37338;47.426;19.204;2024-02-23T04:20:11;4.03;;;3.37;;
51266;SDS011;37338;47.426;19.204;2024-02-23T04:22:36;2.90;;;2.53;;
51266;SDS011;37338;47.426;19.204;2024-02-23T04:25:02;4.90;;;3.17;;
51266;SDS011;37338;47.426;19.204;2024-02-23T04:27:28;3.47;;;2.80;;
51266;SDS011;37338;47.426;19.204;2024-02-23T04:29:53;6.97;;;3.97;;
51266;SDS011;37338;47.426;19.204;2024-02-23T04:32:18;5.60;;;3.70;;
51266;SDS011;37338;47.426;19.204;2024-02-23T04:34:44;4.43;;;3.33;;
51266;SDS011;37338;47.426;19.204;2024-02-23T04:37:09;6.30;;;3.57;;
51266;SDS011;37338;47.426;19.204;2024-02-23T04:39:34;6.23;;;3.10;;
51266;SDS011;37338;47.426;19.204;2024-02-23T04:42:00;3.80;;;2.93;;
51266;SDS011;37338;47.426;19.204;2024-02-23T04:44:25;3.97;;;3.10;;
51266;SDS011;37338;47.426;19.204;2024-02-23T04:46:50;4.47;;;2.77;;
51266;SDS011;37338;47.426;19.204;2024-02-23T04:49:15;4.97;;;3.40;;
51266;SDS011;37338;47.426;19.204;2024-02-23T04:51:41;5.47;;;3.13;;
51266;SDS011;37338;47.426;19.204;2024-02-23T04:54:06;6.93;;;3.43;;
51266;SDS011;37338;47.426;19.204;2024-02-23T04:56:32;3.80;;;3.07;;
51266;SDS011;37338;47.426;19.204;2024-02-23T04:58:58;5.63;;;3.97;;
51266;SDS011;37338;47.426;19.204;2024-02-23T05:01:23;6.80;;;3.70;;
51266;SDS011;37338;47.426;19.204;2024-02-23T05:03:49;4.47;;;3.33;;
51266;SDS011;37338;47.426;19.204;2024-02-23T05:06:14;3.77;;;2.63;;
51266;SDS011;37338;47.426;19.204;2024-02-23T05:08:39;3.70;;;2.70;;
51266;SDS011;37338;47.426;19.204;2024-02-23T05:11:05;4.77;;;2.80;;
51266;SDS011;37338;47.426;19.204;2024-02-23T05:13:31;5.00;;;2.57;;
51266;SDS011;37338;47.426;19.204;2024-02-23T05:15:56;3.53;;;2.37;;
51266;SDS011;37338;47.426;19.204;2024-02-23T05:18:22;3.70;;;2.73;;
51266;SDS011;37338;47.426;19.204;2024-02-23T05:20:47;4.83;;;3.60;;
51266;SDS011;37338;47.426;19.204;2024-02-23T05:23:12;3.90;;;3.10;;
51266;SDS011;37338;47.426;19.204;2024-02-23T05:25:40;4.23;;;2.97;;
51266;SDS011;37338;47.426;19.204;2024-02-23T05:28:06;3.13;;;2.70;;
51266;SDS011;37338;47.426;19.204;2024-02-23T05:30:31;5.27;;;2.57;;
51266;SDS011;37338;47.426;19.204;2024-02-23T05:32:57;6.63;;;3.20;;
51266;SDS011;37338;47.426;19.204;2024-02-23T05:35:23;5.90;;;3.47;;
51266;SDS011;37338;47.426;19.204;2024-02-23T05:37:49;6.67;;;3.47;;
51266;SDS011;37338;47.426;19.204;2024-02-23T05:40:15;5.00;;;3.00;;
51266;SDS011;37338;47.426;19.204;2024-02-23T05:42:40;3.87;;;2.87;;
51266;SDS011;37338;47.426;19.204;2024-02-23T05:45:08;8.43;;;2.97;;
51266;SDS011;37338;47.426;19.204;2024-02-23T05:47:34;4.37;;;2.70;;
51266;SDS011;37338;47.426;19.204;2024-02-23T05:50:01;3.37;;;2.60;;
51266;SDS011;37338;47.426;19.204;2024-02-23T05:52:27;7.37;;;2.80;;
51266;SDS011;37338;47.426;19.204;2024-02-23T05:54:53;3.30;;;1.93;;
51266;SDS011;37338;47.426;19.204;2024-02-23T05:57:20;6.10;;;2.33;;
51266;SDS011;37338;47.426;19.204;2024-02-23T05:59:46;5.87;;;3.83;;
51266;SDS011;37338;47.426;19.204;2024-02-23T06:02:11;8.63;;;4.53;;
51266;SDS011;37338;47.426;19.204;2024-02-23T06:04:36;13.17;;;7.73;;
51266;SDS011;37338;47.426;19.204;2024-02-23T06:07:03;14.93;;;7.47;;
51266;SDS011;37338;47.426;19.204;2024-02-23T06:09:28;7.60;;;5.27;;
51266;SDS011;37338;47.426;19.204;2024-02-23T06:11:53;7.67;;;3.80;;
51266;SDS011;37338;47.426;19.204;2024-02-23T06:14:19;2.90;;;2.60;;
51266;SDS011;37338;47.426;19.204;2024-02-23T06:16:44;6.63;;;3.33;;
51266;SDS011;37338;47.426;19.204;2024-02-23T06:19:09;3.47;;;3.17;;
51266;SDS011;37338;47.426;19.204;2024-02-23T06:21:35;6.80;;;3.47;;
51266;SDS011;37338;47.426;19.204;2024-02-23T06:24:00;5.37;;;3.87;;
51266;SDS011;37338;47.426;19.204;2024-02-23T06:26:25;5.07;;;3.50;;
51266;SDS011;37338;47.426;19.204;2024-02-23T06:28:51;6.27;;;3.83;;
51266;SDS011;37338;47.426;19.204;2024-02-23T06:31:16;5.77;;;4.40;;
51266;SDS011;37338;47.426;19.204;2024-02-23T06:33:42;6.33;;;4.00;;
51266;SDS011;37338;47.426;19.204;2024-02-23T06:36:07;7.83;;;5.07;;
51266;SDS011;37338;47.426;19.204;2024-02-23T06:38:33;6.00;;;4.60;;
51266;SDS011;37338;47.426;19.204;2024-02-23T06:40:58;5.47;;;4.20;;
51266;SDS011;37338;47.426;19.204;2024-02-23T06:43:24;8.00;;;3.93;;
51266;SDS011;37338;47.426;19.204;2024-02-23T06:45:49;5.67;;;4.33;;
51266;SDS011;37338;47.426;19.204;2024-02-23T06:48:14;6.40;;;4.10;;
51266;SDS011;37338;47.426;19.204;2024-02-23T06:50:40;6.10;;;4.83;;
51266;SDS011;37338;47.426;19.204;2024-02-23T06:53:05;8.70;;;5.27;;
51266;SDS011;37338;47.426;19.204;2024-02-23T06:55:31;8.33;;;6.50;;
51266;SDS011;37338;47.426;19.204;2024-02-23T06:57:57;9.20;;;6.17;;
51266;SDS011;37338;47.426;19.204;2024-02-23T07:00:22;6.67;;;5.53;;
51266;SDS011;37338;47.426;19.204;2024-02-23T07:02:47;6.30;;;4.93;;
51266;SDS011;37338;47.426;19.204;2024-02-23T07:05:12;6.57;;;5.07;;
51266;SDS011;37338;47.426;19.204;2024-02-23T07:07:39;7.10;;;4.43;;
51266;SDS011;37338;47.426;19.204;2024-02-23T07:10:05;7.23;;;5.57;;
51266;SDS011;37338;47.426;19.204;2024-02-23T07:12:31;10.83;;;7.30;;
51266;SDS011;37338;47.426;19.204;2024-02-23T07:14:56;10.77;;;6.30;;
51266;SDS011;37338;47.426;19.204;2024-02-23T07:17:22;11.37;;;6.83;;
51266;SDS011;37338;47.426;19.204;2024-02-23T07:19:48;7.37;;;5.90;;
51266;SDS011;37338;47.426;19.204;2024-02-23T07:22:13;6.07;;;5.07;;
51266;SDS011;37338;47.426;19.204;2024-02-23T07:24:42;6.50;;;4.57;;
51266;SDS011;37338;47.426;19.204;2024-02-23T07:27:07;6.53;;;4.80;;
51266;SDS011;37338;47.426;19.204;2024-02-23T07:29:33;6.37;;;5.07;;
51266;SDS011;37338;47.426;19.204;2024-02-23T07:31:58;8.53;;;5.47;;
51266;SDS011;37338;47.426;19.204;2024-02-23T07:34:24;6.63;;;5.03;;
51266;SDS011;37338;47.426;19.204;2024-02-23T07:36:52;6.87;;;5.30;;
51266;SDS011;37338;47.426;19.204;2024-02-23T07:39:19;7.30;;;5.30;;
51266;SDS011;37338;47.426;19.204;2024-02-23T07:41:44;6.23;;;4.80;;
51266;SDS011;37338;47.426;19.204;2024-02-23T07:44:10;10.23;;;5.60;;
51266;SDS011;37338;47.426;19.204;2024-02-23T07:46:35;8.10;;;5.50;;
51266;SDS011;37338;47.426;19.204;2024-02-23T07:49:00;5.97;;;4.73;;
51266;SDS011;37338;47.426;19.204;2024-02-23T07:51:26;9.20;;;5.33;;
51266;SDS011;37338;47.426;19.204;2024-02-23T07:53:51;9.73;;;5.27;;
51266;SDS011;37338;47.426;19.204;2024-02-23T07:56:16;6.00;;;5.27;;
51266;SDS011;37338;47.426;19.204;2024-02-23T07:58:42;8.73;;;5.00;;
51266;SDS011;37338;47.426;19.204;2024-02-23T08:01:07;9.17;;;6.30;;
51266;SDS011;37338;47.426;19.204;2024-02-23T08:03:32;8.17;;;5.43;;
51266;SDS011;37338;47.426;19.204;2024-02-23T08:05:58;6.30;;;5.17;;
51266;SDS011;37338;47.426;19.204;2024-02-23T08:08:23;6.93;;;6.00;;
51266;SDS011;37338;47.426;19.204;2024-02-23T08:10:50;10.83;;;5.93;;
51266;SDS011;37338;47.426;19.204;2024-02-23T08:13:16;10.53;;;6.10;;
51266;SDS011;37338;47.426;19.204;2024-02-23T08:15:42;10.27;;;5.97;;
51266;SDS011;37338;47.426;19.204;2024-02-23T08:18:08;13.37;;;7.73;;
51266;SDS011;37338;47.426;19.204;2024-02-23T08:20:33;5.73;;;5.13;;
51266;SDS011;37338;47.426;19.204;2024-02-23T08:22:58;10.53;;;5.70;;
51266;SDS011;37338;47.426;19.204;2024-02-23T08:25:24;7.27;;;5.53;;
51266;SDS011;37338;47.426;19.204;2024-02-23T08:27:49;8.83;;;6.37;;
51266;SDS011;37338;47.426;19.204;2024-02-23T08:30:14;7.97;;;6.30;;
51266;SDS011;37338;47.426;19.204;2024-02-23T08:32:40;9.67;;;6.90;;
51266;SDS011;37338;47.426;19.204;2024-02-23T08:35:06;11.17;;;6.37;;
51266;SDS011;37338;47.426;19.204;2024-02-23T08:37:32;6.83;;;5.80;;
51266;SDS011;37338;47.426;19.204;2024-02-23T08:39:57;7.73;;;5.80;;
51266;SDS011;37338;47.426;19.204;2024-02-23T08:42:22;6.20;;;5.47;;
51266;SDS011;37338;47.426;19.204;2024-02-23T08:44:48;6.73;;;5.30;;
51266;SDS011;37338;47.426;19.204;2024-02-23T08:47:13;6.77;;;5.37;;
51266;SDS011;37338;47.426;19.204;2024-02-23T08:49:38;11.23;;;5.63;;
51266;SDS011;37338;47.426;19.204;2024-02-23T08:52:04;7.43;;;5.50;;
51266;SDS011;37338;47.426;19.204;2024-02-23T08:54:30;7.80;;;5.20;;
51266;SDS011;37338;47.426;19.204;2024-02-23T08:56:55;7.13;;;5.40;;
51266;SDS011;37338;47.426;19.204;2024-02-23T08:59:20;9.43;;;5.50;;
51266;SDS011;37338;47.426;19.204;2024-02-23T09:01:46;7.20;;;5.57;;
51266;SDS011;37338;47.426;19.204;2024-02-23T09:04:11;7.27;;;6.23;;
51266;SDS011;37338;47.426;19.204;2024-02-23T09:06:37;10.53;;;6.90;;
51266;SDS011;37338;47.426;19.204;2024-02-23T09:09:02;9.07;;;7.37;;
51266;SDS011;37338;47.426;19.204;2024-02-23T09:11:27;8.63;;;6.60;;
51266;SDS011;37338;47.426;19.204;2024-02-23T09:13:53;9.30;;;6.37;;
51266;SDS011;37338;47.426;19.204;2024-02-23T09:16:18;9.13;;;6.90;;
51266;SDS011;37338;47.426;19.204;2024-02-23T09:18:44;10.10;;;7.07;;
51266;SDS011;37338;47.426;19.204;2024-02-23T09:21:09;8.13;;;6.70;;
51266;SDS011;37338;47.426;19.204;2024-02-23T09:23:34;8.10;;;5.97;;
51266;SDS011;37338;47.426;19.204;2024-02-23T09:26:00;8.07;;;6.07;;
51266;SDS011;37338;47.426;19.204;2024-02-23T09:28:25;7.53;;;5.73;;
51266;SDS011;37338;47.426;19.204;2024-02-23T09:30:50;6.83;;;6.13;;
51266;SDS011;37338;47.426;19.204;2024-02-23T09:33:16;9.57;;;5.93;;
51266;SDS011;37338;47.426;19.204;2024-02-23T09:35:41;8.53;;;5.97;;
51266;SDS011;37338;47.426;19.204;2024-02-23T09:38:06;7.30;;;5.97;;
51266;SDS011;37338;47.426;19.204;2024-02-23T09:40:32;7.93;;;5.63;;
51266;SDS011;37338;47.426;19.204;2024-02-23T09:42:58;8.27;;;6.27;;
51266;SDS011;37338;47.426;19.204;2024-02-23T09:45:26;9.30;;;5.60;;
51266;SDS011;37338;47.426;19.204;2024-02-23T09:47:56;7.73;;;5.03;;
51266;SDS011;37338;47.426;19.204;2024-02-23T09:50:22;6.80;;;4.87;;
51266;SDS011;37338;47.426;19.204;2024-02-23T09:52:48;9.37;;;4.63;;
51266;SDS011;37338;47.426;19.204;2024-02-23T09:55:15;7.67;;;4.77;;
51266;SDS011;37338;47.426;19.204;2024-02-23T09:57:41;8.17;;;4.80;;
51266;SDS011;37338;47.426;19.204;2024-02-23T10:00:07;7.77;;;6.17;;
51266;SDS011;37338;47.426;19.204;2024-02-23T10:02:34;7.53;;;4.90;;
51266;SDS011;37338;47.426;19.204;2024-02-23T10:04:59;7.93;;;5.00;;
51266;SDS011;37338;47.426;19.204;2024-02-23T10:07:27;6.97;;;5.07;;
51266;SDS011;37338;47.426;19.204;2024-02-23T10:09:53;11.43;;;5.60;;
51266;SDS011;37338;47.426;19.204;2024-02-23T10:12:20;9.27;;;5.60;;
51266;SDS011;37338;47.426;19.204;2024-02-23T10:14:45;6.78;;;6.07;;
51266;SDS011;37338;47.426;19.204;2024-02-23T10:17:11;7.00;;;5.32;;
51266;SDS011;37338;47.426;19.204;2024-02-23T10:19:36;10.30;;;8.07;;
51266;SDS011;37338;47.426;19.204;2024-02-23T10:22:02;11.63;;;7.72;;
51266;SDS011;37338;47.426;19.204;2024-02-23T10:24:28;12.37;;;8.47;;
51266;SDS011;37338;47.426;19.204;2024-02-23T10:26:53;13.07;;;9.20;;
51266;SDS011;37338;47.426;19.204;2024-02-23T10:29:20;12.43;;;9.07;;
51266;SDS011;37338;47.426;19.204;2024-02-23T10:31:46;11.53;;;9.03;;
51266;SDS011;37338;47.426;19.204;2024-02-23T10:34:14;10.50;;;8.03;;
51266;SDS011;37338;47.426;19.204;2024-02-23T10:36:41;13.00;;;9.33;;
51266;SDS011;37338;47.426;19.204;2024-02-23T10:39:10;16.57;;;10.13;;
51266;SDS011;37338;47.426;19.204;2024-02-23T10:41:37;12.83;;;8.63;;
51266;SDS011;37338;47.426;19.204;2024-02-23T10:44:04;10.87;;;7.83;;
51266;SDS011;37338;47.426;19.204;2024-02-23T10:46:32;10.20;;;7.13;;
51266;SDS011;37338;47.426;19.204;2024-02-23T10:48:58;7.63;;;6.13;;
51266;SDS011;37338;47.426;19.204;2024-02-23T10:51:27;9.27;;;6.73;;
51266;SDS011;37338;47.426;19.204;2024-02-23T10:53:53;6.97;;;5.60;;
51266;SDS011;37338;47.426;19.204;2024-02-23T10:56:19;11.50;;;6.17;;
51266;SDS011;37338;47.426;19.204;2024-02-23T10:58:47;11.80;;;6.67;;
51266;SDS011;37338;47.426;19.204;2024-02-23T11:01:12;11.30;;;6.53;;
51266;SDS011;37338;47.426;19.204;2024-02-23T11:03:40;9.03;;;6.60;;
51266;SDS011;37338;47.426;19.204;2024-02-23T11:06:07;10.40;;;6.00;;
51266;SDS011;37338;47.426;19.204;2024-02-23T11:08:33;8.27;;;5.90;;
51266;SDS011;37338;47.426;19.204;2024-02-23T11:11:08;15.03;;;7.30;;
51266;SDS011;37338;47.426;19.204;2024-02-23T11:13:35;11.45;;;6.63;;
51266;SDS011;37338;47.426;19.204;2024-02-23T11:16:04;8.00;;;6.80;;
51266;SDS011;37338;47.426;19.204;2024-02-23T11:18:31;16.83;;;8.70;;
51266;SDS011;37338;47.426;19.204;2024-02-23T11:21:00;19.33;;;12.85;;
51266;SDS011;37338;47.426;19.204;2024-02-23T11:23:26;21.70;;;14.57;;
51266;SDS011;37338;47.426;19.204;2024-02-23T11:25:59;24.17;;;15.33;;
51266;SDS011;37338;47.426;19.204;2024-02-23T11:28:27;18.88;;;13.52;;
51266;SDS011;37338;47.426;19.204;2024-02-23T11:30:53;17.58;;;12.73;;
51266;SDS011;37338;47.426;19.204;2024-02-23T11:33:34;15.90;;;12.53;;
51266;SDS011;37338;47.426;19.204;2024-02-23T11:36:06;14.00;;;9.70;;
51266;SDS011;37338;47.426;19.204;2024-02-23T11:38:32;15.30;;;11.07;;
51266;SDS011;37338;47.426;19.204;2024-02-23T11:40:59;10.75;;;8.45;;
51266;SDS011;37338;47.426;19.204;2024-02-23T11:43:25;9.68;;;7.53;;
51266;SDS011;37338;47.426;19.204;2024-02-23T11:45:50;10.48;;;7.47;;
51266;SDS011;37338;47.426;19.204;2024-02-23T11:48:16;9.82;;;6.57;;
51266;SDS011;37338;47.426;19.204;2024-02-23T11:50:41;9.80;;;7.63;;
51266;SDS011;37338;47.426;19.204;2024-02-23T11:53:07;11.02;;;7.72;;
51266;SDS011;37338;47.426;19.204;2024-02-23T11:55:33;11.77;;;6.45;;
51266;SDS011;37338;47.426;19.204;2024-02-23T11:57:59;10.45;;;6.35;;
51266;SDS011;37338;47.426;19.204;2024-02-23T12:00:24;7.95;;;6.13;;
51266;SDS011;37338;47.426;19.204;2024-02-23T12:02:49;7.78;;;5.97;;
51266;SDS011;37338;47.426;19.204;2024-02-23T12:05:15;7.20;;;4.93;;
51266;SDS011;37338;47.426;19.204;2024-02-23T12:07:41;9.77;;;5.90;;
51266;SDS011;37338;47.426;19.204;2024-02-23T12:10:07;7.65;;;5.38;;
51266;SDS011;37338;47.426;19.204;2024-02-23T12:12:32;7.18;;;5.28;;
51266;SDS011;37338;47.426;19.204;2024-02-23T12:14:58;5.65;;;4.55;;
51266;SDS011;37338;47.426;19.204;2024-02-23T12:17:24;9.27;;;5.80;;
51266;SDS011;37338;47.426;19.204;2024-02-23T12:19:57;8.38;;;5.85;;
51266;SDS011;37338;47.426;19.204;2024-02-23T12:22:24;5.63;;;5.00;;
51266;SDS011;37338;47.426;19.204;2024-02-23T12:24:49;7.70;;;5.80;;
51266;SDS011;37338;47.426;19.204;2024-02-23T12:27:16;10.90;;;5.72;;
51266;SDS011;37338;47.426;19.204;2024-02-23T12:29:50;16.58;;;6.85;;
51266;SDS011;37338;47.426;19.204;2024-02-23T12:32:19;8.70;;;5.97;;
51266;SDS011;37338;47.426;19.204;2024-02-23T12:34:45;7.72;;;5.38;;
51266;SDS011;37338;47.426;19.204;2024-02-23T12:37:14;5.90;;;4.35;;
51266;SDS011;37338;47.426;19.204;2024-02-23T12:39:43;8.38;;;5.50;;
51266;SDS011;37338;47.426;19.204;2024-02-23T12:42:08;6.28;;;4.88;;
51266;SDS011;37338;47.426;19.204;2024-02-23T12:44:33;8.13;;;5.68;;
51266;SDS011;37338;47.426;19.204;2024-02-23T12:46:59;6.78;;;4.88;;
51266;SDS011;37338;47.426;19.204;2024-02-23T12:49:24;7.45;;;5.07;;
51266;SDS011;37338;47.426;19.204;2024-02-23T12:51:49;9.23;;;5.57;;
51266;SDS011;37338;47.426;19.204;2024-02-23T12:54:15;8.85;;;5.75;;
51266;SDS011;37338;47.426;19.204;2024-02-23T12:56:40;9.63;;;6.18;;
51266;SDS011;37338;47.426;19.204;2024-02-23T12:59:05;8.37;;;5.83;;
51266;SDS011;37338;47.426;19.204;2024-02-23T13:01:31;12.23;;;6.40;;
51266;SDS011;37338;47.426;19.204;2024-02-23T13:03:59;8.23;;;6.20;;
51266;SDS011;37338;47.426;19.204;2024-02-23T13:06:24;7.70;;;5.90;;
51266;SDS011;37338;47.426;19.204;2024-02-23T13:08:50;13.32;;;6.57;;
51266;SDS011;37338;47.426;19.204;2024-02-23T13:11:15;11.75;;;6.13;;
51266;SDS011;37338;47.426;19.204;2024-02-23T13:13:41;6.57;;;5.55;;
51266;SDS011;37338;47.426;19.204;2024-02-23T13:16:06;9.68;;;6.00;;
51266;SDS011;37338;47.426;19.204;2024-02-23T13:18:33;9.50;;;4.22;;
51266;SDS011;37338;47.426;19.204;2024-02-23T13:20:58;10.68;;;5.50;;
51266;SDS011;37338;47.426;19.204;2024-02-23T13:23:24;6.57;;;5.10;;
51266;SDS011;37338;47.426;19.204;2024-02-23T13:25:49;10.25;;;5.20;;
51266;SDS011;37338;47.426;19.204;2024-02-23T13:28:15;6.13;;;4.87;;
51266;SDS011;37338;47.426;19.204;2024-02-23T13:30:40;7.85;;;5.38;;
51266;SDS011;37338;47.426;19.204;2024-02-23T13:33:05;7.73;;;6.37;;
51266;SDS011;37338;47.426;19.204;2024-02-23T13:35:32;7.38;;;5.30;;
51266;SDS011;37338;47.426;19.204;2024-02-23T13:37:58;6.97;;;4.85;;
51266;SDS011;37338;47.426;19.204;2024-02-23T13:40:24;9.18;;;5.15;;
51266;SDS011;37338;47.426;19.204;2024-02-23T13:42:49;9.60;;;5.30;;
51266;SDS011;37338;47.426;19.204;2024-02-23T13:45:15;6.43;;;4.88;;
51266;SDS011;37338;47.426;19.204;2024-02-23T13:47:41;9.50;;;4.93;;
51266;SDS011;37338;47.426;19.204;2024-02-23T13:50:06;8.10;;;4.57;;
51266;SDS011;37338;47.426;19.204;2024-02-23T13:52:32;8.43;;;4.57;;
51266;SDS011;37338;47.426;19.204;2024-02-23T13:54:57;8.83;;;4.13;;
51266;SDS011;37338;47.426;19.204;2024-02-23T13:57:23;11.80;;;5.63;;
51266;SDS011;37338;47.426;19.204;2024-02-23T13:59:48;12.90;;;5.95;;
51266;SDS011;37338;47.426;19.204;2024-02-23T14:02:14;16.25;;;6.57;;
51266;SDS011;37338;47.426;19.204;2024-02-23T14:04:39;9.65;;;6.97;;
51266;SDS011;37338;47.426;19.204;2024-02-23T14:07:06;13.73;;;8.13;;
51266;SDS011;37338;47.426;19.204;2024-02-23T14:09:32;15.60;;;7.53;;
51266;SDS011;37338;47.426;19.204;2024-02-23T14:11:57;15.13;;;7.73;;
51266;SDS011;37338;47.426;19.204;2024-02-23T14:14:23;14.87;;;7.50;;
51266;SDS011;37338;47.426;19.204;2024-02-23T14:16:48;16.70;;;8.83;;
51266;SDS011;37338;47.426;19.204;2024-02-23T14:19:14;15.33;;;9.93;;
51266;SDS011;37338;47.426;19.204;2024-02-23T14:21:39;16.37;;;10.47;;